sensor_id;sensor_type;location;lat;lon;timestamp;temperature;humidity
1083;DHT22;530;51.448;7.238;2024-01-30T00:01:36;9.50;99.90
1083;DHT22;530;51.448;7.238;2024-01-30T00:04:02;9.60;99.90
1083;DHT22;530;51.448;7.238;2024-01-30T00:06:28;9.50;99.90
1083;DHT22;530;51.448;7.238;2024-01-30T00:08:53;9.50;99.90
1083;DHT22;530;51.448;7.238;2024-01-30T00:11:19;9.50;99.90
1083;DHT22;530;51.448;7.238;2024-01-30T00:13:45;9.50;99.90
1083;DHT22;530;51.448;7.238;2024-01-30T00:16:21;9.50;99.90
1083;DHT22;530;51.448;7.238;2024-01-30T00:18:47;9.50;99.90
1083;DHT22;530;51.448;7.238;2024-01-30T00:21:13;9.50;99.90
1083;DHT22;530;51.448;7.238;2024-01-30T00:23:39;9.50;99.90
1083;DHT22;530;51.448;7.238;2024-01-30T00:26:05;9.50;99.90
1083;DHT22;530;51.448;7.238;2024-01-30T00:28:31;9.50;99.90
1083;DHT22;530;51.448;7.238;2024-01-30T00:30:57;9.50;99.90
1083;DHT22;530;51.448;7.238;2024-01-30T00:33:22;9.40;99.90
1083;DHT22;530;51.448;7.238;2024-01-30T00:35:48;9.40;99.90
1083;DHT22;530;51.448;7.238;2024-01-30T00:38:14;9.40;99.90
1083;DHT22;530;51.448;7.238;2024-01-30T00:40:39;9.40;99.90
1083;DHT22;530;51.448;7.238;2024-01-30T00:43:05;9.30;99.90
1083;DHT22;530;51.448;7.238;2024-01-30T00:45:31;9.30;99.90
1083;DHT22;530;51.448;7.238;2024-01-30T00:47:57;9.20;99.90
1083;DHT22;530;51.448;7.238;2024-01-30T00:50:22;9.20;99.90
1083;DHT22;530;51.448;7.238;2024-01-30T00:52:48;9.20;99.90
1083;DHT22;530;51.448;7.238;2024-01-30T00:55:14;9.20;99.90
1083;DHT22;530;51.448;7.238;2024-01-30T00:57:40;9.20;99.90
1083;DHT22;530;51.448;7.238;2024-01-30T01:00:08;9.20;99.90
1083;DHT22;530;51.448;7.238;2024-01-30T01:02:37;9.20;99.90
1083;DHT22;530;51.448;7.238;2024-01-30T01:05:04;9.20;99.90
1083;DHT22;530;51.448;7.238;2024-01-30T01:07:30;9.20;99.90
1083;DHT22;530;51.448;7.238;2024-01-30T01:09:56;9.20;99.90
1083;DHT22;530;51.448;7.238;2024-01-30T01:12:22;9.30;99.90
1083;DHT22;530;51.448;7.238;2024-01-30T01:14:47;9.20;99.90
1083;DHT22;530;51.448;7.238;2024-01-30T01:17:13;9.20;99.90
1083;DHT22;530;51.448;7.238;2024-01-30T01:19:39;9.20;99.90
1083;DHT22;530;51.448;7.238;2024-01-30T01:22:04;9.20;99.90
1083;DHT22;530;51.448;7.238;2024-01-30T01:24:33;9.20;99.90
1083;DHT22;530;51.448;7.238;2024-01-30T01:26:59;9.20;99.90
1083;DHT22;530;51.448;7.238;2024-01-30T01:29:25;9.20;99.90
1083;DHT22;530;51.448;7.238;2024-01-30T01:31:57;9.20;99.90
1083;DHT22;530;51.448;7.238;2024-01-30T01:34:23;9.30;99.90
1083;DHT22;530;51.448;7.238;2024-01-30T01:36:50;9.30;99.90
1083;DHT22;530;51.448;7.238;2024-01-30T01:39:16;9.30;99.90
1083;DHT22;530;51.448;7.238;2024-01-30T01:41:42;9.30;99.90
1083;DHT22;530;51.448;7.238;2024-01-30T01:44:08;9.30;99.90
1083;DHT22;530;51.448;7.238;2024-01-30T01:46:34;9.30;99.90
1083;DHT22;530;51.448;7.238;2024-01-30T01:49:02;9.30;99.90
1083;DHT22;530;51.448;7.238;2024-01-30T01:51:29;9.20;99.90
1083;DHT22;530;51.448;7.238;2024-01-30T01:53:59;9.20;99.90
1083;DHT22;530;51.448;7.238;2024-01-30T01:56:27;9.20;99.90
1083;DHT22;530;51.448;7.238;2024-01-30T01:58:54;9.20;99.90
1083;DHT22;530;51.448;7.238;2024-01-30T02:01:21;9.10;99.90
1083;DHT22;530;51.448;7.238;2024-01-30T02:03:47;9.10;99.90
1083;DHT22;530;51.448;7.238;2024-01-30T02:06:16;9.10;99.90
1083;DHT22;530;51.448;7.238;2024-01-30T02:08:42;9.00;99.90
1083;DHT22;530;51.448;7.238;2024-01-30T02:11:08;9.00;99.90
1083;DHT22;530;51.448;7.238;2024-01-30T02:13:35;9.00;99.90
1083;DHT22;530;51.448;7.238;2024-01-30T02:16:01;9.00;99.90
1083;DHT22;530;51.448;7.238;2024-01-30T02:18:27;9.10;99.90
1083;DHT22;530;51.448;7.238;2024-01-30T02:20:54;9.10;99.90
1083;DHT22;530;51.448;7.238;2024-01-30T02:23:23;9.10;99.90
1083;DHT22;530;51.448;7.238;2024-01-30T02:25:50;9.10;99.90
1083;DHT22;530;51.448;7.238;2024-01-30T02:28:19;9.10;99.90
1083;DHT22;530;51.448;7.238;2024-01-30T02:30:45;9.00;99.90
1083;DHT22;530;51.448;7.238;2024-01-30T02:33:12;9.10;99.90
1083;DHT22;530;51.448;7.238;2024-01-30T02:35:38;9.00;99.90
1083;DHT22;530;51.448;7.238;2024-01-30T02:38:04;9.00;99.90
1083;DHT22;530;51.448;7.238;2024-01-30T02:40:29;9.00;99.90
1083;DHT22;530;51.448;7.238;2024-01-30T02:42:56;9.00;99.90
1083;DHT22;530;51.448;7.238;2024-01-30T02:45:21;9.00;99.90
1083;DHT22;530;51.448;7.238;2024-01-30T02:47:47;9.00;99.90
1083;DHT22;530;51.448;7.238;2024-01-30T02:50:13;9.00;99.90
1083;DHT22;530;51.448;7.238;2024-01-30T02:52:40;9.00;99.90
1083;DHT22;530;51.448;7.238;2024-01-30T02:55:06;9.10;99.90
1083;DHT22;530;51.448;7.238;2024-01-30T02:57:32;9.00;99.90
1083;DHT22;530;51.448;7.238;2024-01-30T02:59:58;9.00;99.90
1083;DHT22;530;51.448;7.238;2024-01-30T03:02:23;9.00;99.90
1083;DHT22;530;51.448;7.238;2024-01-30T03:04:49;9.00;99.90
1083;DHT22;530;51.448;7.238;2024-01-30T03:07:15;9.00;99.90
1083;DHT22;530;51.448;7.238;2024-01-30T03:09:44;9.00;99.90
1083;DHT22;530;51.448;7.238;2024-01-30T03:12:10;9.00;99.90
1083;DHT22;530;51.448;7.238;2024-01-30T03:14:35;9.00;99.90
1083;DHT22;530;51.448;7.238;2024-01-30T03:17:01;9.00;99.90
1083;DHT22;530;51.448;7.238;2024-01-30T03:19:28;9.00;99.90
1083;DHT22;530;51.448;7.238;2024-01-30T03:21:53;9.10;99.90
1083;DHT22;530;51.448;7.238;2024-01-30T03:24:19;9.10;99.90
1083;DHT22;530;51.448;7.238;2024-01-30T03:26:45;9.10;99.90
1083;DHT22;530;51.448;7.238;2024-01-30T03:29:11;9.10;99.90
1083;DHT22;530;51.448;7.238;2024-01-30T03:31:36;9.10;99.90
1083;DHT22;530;51.448;7.238;2024-01-30T03:34:02;9.10;99.90
1083;DHT22;530;51.448;7.238;2024-01-30T03:36:28;9.10;99.90
1083;DHT22;530;51.448;7.238;2024-01-30T03:38:54;9.10;99.90
1083;DHT22;530;51.448;7.238;2024-01-30T03:41:19;9.10;99.90
1083;DHT22;530;51.448;7.238;2024-01-30T03:43:47;9.00;99.90
1083;DHT22;530;51.448;7.238;2024-01-30T03:46:13;9.00;99.90
1083;DHT22;530;51.448;7.238;2024-01-30T03:48:38;9.00;99.90
1083;DHT22;530;51.448;7.238;2024-01-30T03:51:05;9.00;99.90
1083;DHT22;530;51.448;7.238;2024-01-30T03:53:30;9.00;99.90
1083;DHT22;530;51.448;7.238;2024-01-30T03:55:56;9.10;99.90
1083;DHT22;530;51.448;7.238;2024-01-30T03:58:22;9.10;99.90
1083;DHT22;530;51.448;7.238;2024-01-30T04:00:47;9.10;99.90
1083;DHT22;530;51.448;7.238;2024-01-30T04:03:15;9.10;99.90
1083;DHT22;530;51.448;7.238;2024-01-30T04:05:43;9.00;99.90
1083;DHT22;530;51.448;7.238;2024-01-30T04:08:09;9.00;99.90
1083;DHT22;530;51.448;7.238;2024-01-30T04:10:35;9.00;99.90
1083;DHT22;530;51.448;7.238;2024-01-30T04:13:01;9.10;99.90
1083;DHT22;530;51.448;7.238;2024-01-30T04:15:27;9.10;99.90
1083;DHT22;530;51.448;7.238;2024-01-30T04:17:57;9.00;99.90
1083;DHT22;530;51.448;7.238;2024-01-30T04:20:24;9.10;99.90
1083;DHT22;530;51.448;7.238;2024-01-30T04:22:49;9.00;99.90
1083;DHT22;530;51.448;7.238;2024-01-30T04:25:15;9.10;99.90
1083;DHT22;530;51.448;7.238;2024-01-30T04:27:41;9.10;99.90
1083;DHT22;530;51.448;7.238;2024-01-30T04:30:07;9.10;99.90
1083;DHT22;530;51.448;7.238;2024-01-30T04:32:33;9.00;99.90
1083;DHT22;530;51.448;7.238;2024-01-30T04:34:59;9.00;99.90
1083;DHT22;530;51.448;7.238;2024-01-30T04:37:24;9.00;99.90
1083;DHT22;530;51.448;7.238;2024-01-30T04:39:50;9.00;99.90
1083;DHT22;530;51.448;7.238;2024-01-30T04:42:17;9.00;99.90
1083;DHT22;530;51.448;7.238;2024-01-30T04:44:42;9.00;99.90
1083;DHT22;530;51.448;7.238;2024-01-30T04:47:09;9.00;99.90
1083;DHT22;530;51.448;7.238;2024-01-30T04:49:38;9.00;99.90
1083;DHT22;530;51.448;7.238;2024-01-30T04:52:04;9.00;99.90
1083;DHT22;530;51.448;7.238;2024-01-30T04:54:30;8.90;99.90
1083;DHT22;530;51.448;7.238;2024-01-30T04:56:56;9.00;99.90
1083;DHT22;530;51.448;7.238;2024-01-30T04:59:21;9.00;99.90
1083;DHT22;530;51.448;7.238;2024-01-30T05:01:47;9.10;99.90
1083;DHT22;530;51.448;7.238;2024-01-30T05:04:13;9.00;99.90
1083;DHT22;530;51.448;7.238;2024-01-30T05:06:38;9.00;99.90
1083;DHT22;530;51.448;7.238;2024-01-30T05:09:04;9.00;99.90
1083;DHT22;530;51.448;7.238;2024-01-30T05:11:30;9.00;99.90
1083;DHT22;530;51.448;7.238;2024-01-30T05:13:56;9.00;99.90
1083;DHT22;530;51.448;7.238;2024-01-30T05:16:22;9.00;99.90
1083;DHT22;530;51.448;7.238;2024-01-30T05:18:47;9.00;99.90
1083;DHT22;530;51.448;7.238;2024-01-30T05:21:13;9.10;99.90
1083;DHT22;530;51.448;7.238;2024-01-30T05:23:39;9.00;99.90
1083;DHT22;530;51.448;7.238;2024-01-30T05:26:05;9.10;99.90
1083;DHT22;530;51.448;7.238;2024-01-30T05:28:32;9.10;99.90
1083;DHT22;530;51.448;7.238;2024-01-30T05:30:57;9.10;99.90
1083;DHT22;530;51.448;7.238;2024-01-30T05:33:23;9.20;99.90
1083;DHT22;530;51.448;7.238;2024-01-30T05:35:48;9.20;99.90
1083;DHT22;530;51.448;7.238;2024-01-30T05:38:16;9.30;99.90
1083;DHT22;530;51.448;7.238;2024-01-30T05:40:41;9.30;99.90
1083;DHT22;530;51.448;7.238;2024-01-30T05:43:07;9.30;99.90
1083;DHT22;530;51.448;7.238;2024-01-30T05:45:33;9.30;99.90
1083;DHT22;530;51.448;7.238;2024-01-30T05:48:01;9.40;99.90
1083;DHT22;530;51.448;7.238;2024-01-30T05:50:26;9.40;99.90
1083;DHT22;530;51.448;7.238;2024-01-30T05:52:53;9.40;99.90
1083;DHT22;530;51.448;7.238;2024-01-30T05:55:18;9.50;99.90
1083;DHT22;530;51.448;7.238;2024-01-30T05:57:44;9.50;99.90
1083;DHT22;530;51.448;7.238;2024-01-30T06:00:10;9.50;99.90
1083;DHT22;530;51.448;7.238;2024-01-30T06:02:36;9.50;99.90
1083;DHT22;530;51.448;7.238;2024-01-30T06:05:02;9.50;99.90
1083;DHT22;530;51.448;7.238;2024-01-30T06:07:27;9.50;99.90
1083;DHT22;530;51.448;7.238;2024-01-30T06:09:53;9.50;99.90
1083;DHT22;530;51.448;7.238;2024-01-30T06:12:19;9.60;99.90
1083;DHT22;530;51.448;7.238;2024-01-30T06:14:44;9.50;99.90
1083;DHT22;530;51.448;7.238;2024-01-30T06:17:10;9.50;99.90
1083;DHT22;530;51.448;7.238;2024-01-30T06:19:40;9.50;99.90
1083;DHT22;530;51.448;7.238;2024-01-30T06:22:06;9.50;99.90
1083;DHT22;530;51.448;7.238;2024-01-30T06:24:31;9.50;99.90
1083;DHT22;530;51.448;7.238;2024-01-30T06:26:57;9.50;99.90
1083;DHT22;530;51.448;7.238;2024-01-30T06:29:23;9.60;99.90
1083;DHT22;530;51.448;7.238;2024-01-30T06:31:50;9.50;99.90
1083;DHT22;530;51.448;7.238;2024-01-30T06:34:16;9.50;99.90
1083;DHT22;530;51.448;7.238;2024-01-30T06:36:42;9.50;99.90
1083;DHT22;530;51.448;7.238;2024-01-30T06:39:07;9.50;99.90
1083;DHT22;530;51.448;7.238;2024-01-30T06:41:33;9.50;99.90
1083;DHT22;530;51.448;7.238;2024-01-30T06:43:59;9.50;99.90
1083;DHT22;530;51.448;7.238;2024-01-30T06:46:25;9.50;99.90
1083;DHT22;530;51.448;7.238;2024-01-30T06:48:50;9.60;99.90
1083;DHT22;530;51.448;7.238;2024-01-30T06:51:16;9.60;99.90
1083;DHT22;530;51.448;7.238;2024-01-30T06:53:42;9.60;99.90
1083;DHT22;530;51.448;7.238;2024-01-30T06:56:08;9.60;99.90
1083;DHT22;530;51.448;7.238;2024-01-30T06:58:33;9.50;99.90
1083;DHT22;530;51.448;7.238;2024-01-30T07:00:59;9.50;99.90
1083;DHT22;530;51.448;7.238;2024-01-30T07:03:25;9.50;99.90
1083;DHT22;530;51.448;7.238;2024-01-30T07:05:50;9.50;99.90
1083;DHT22;530;51.448;7.238;2024-01-30T07:08:17;9.40;99.90
1083;DHT22;530;51.448;7.238;2024-01-30T07:10:46;9.40;99.90
1083;DHT22;530;51.448;7.238;2024-01-30T07:13:12;9.40;99.90
1083;DHT22;530;51.448;7.238;2024-01-30T07:15:38;9.40;99.90
1083;DHT22;530;51.448;7.238;2024-01-30T07:18:06;9.40;99.90
1083;DHT22;530;51.448;7.238;2024-01-30T07:20:32;9.40;99.90
1083;DHT22;530;51.448;7.238;2024-01-30T07:22:58;9.40;99.90
1083;DHT22;530;51.448;7.238;2024-01-30T07:25:24;9.40;99.90
1083;DHT22;530;51.448;7.238;2024-01-30T07:27:53;9.40;99.90
1083;DHT22;530;51.448;7.238;2024-01-30T07:30:19;9.40;99.90
1083;DHT22;530;51.448;7.238;2024-01-30T07:32:46;9.40;99.90
1083;DHT22;530;51.448;7.238;2024-01-30T07:35:13;9.40;99.90
1083;DHT22;530;51.448;7.238;2024-01-30T07:37:39;9.50;99.90
1083;DHT22;530;51.448;7.238;2024-01-30T07:40:05;9.50;99.90
1083;DHT22;530;51.448;7.238;2024-01-30T07:42:32;9.50;99.90
1083;DHT22;530;51.448;7.238;2024-01-30T07:44:58;9.50;99.90
1083;DHT22;530;51.448;7.238;2024-01-30T07:47:24;9.50;99.90
1083;DHT22;530;51.448;7.238;2024-01-30T07:49:50;9.50;99.90
1083;DHT22;530;51.448;7.238;2024-01-30T07:52:16;9.50;99.90
1083;DHT22;530;51.448;7.238;2024-01-30T07:54:42;9.50;99.90
1083;DHT22;530;51.448;7.238;2024-01-30T07:57:08;9.50;99.90
1083;DHT22;530;51.448;7.238;2024-01-30T07:59:33;9.50;99.90
1083;DHT22;530;51.448;7.238;2024-01-30T08:01:59;9.60;99.90
1083;DHT22;530;51.448;7.238;2024-01-30T08:04:24;9.60;99.90
1083;DHT22;530;51.448;7.238;2024-01-30T08:06:50;9.70;99.90
1083;DHT22;530;51.448;7.238;2024-01-30T08:09:16;9.70;99.90
1083;DHT22;530;51.448;7.238;2024-01-30T08:11:42;9.80;99.90
1083;DHT22;530;51.448;7.238;2024-01-30T08:14:07;9.80;99.90
1083;DHT22;530;51.448;7.238;2024-01-30T08:16:33;9.90;99.90
1083;DHT22;530;51.448;7.238;2024-01-30T08:18:59;9.90;99.90
1083;DHT22;530;51.448;7.238;2024-01-30T08:21:24;9.90;99.90
1083;DHT22;530;51.448;7.238;2024-01-30T08:23:50;10.00;99.90
1083;DHT22;530;51.448;7.238;2024-01-30T08:26:16;10.00;99.90
1083;DHT22;530;51.448;7.238;2024-01-30T08:28:41;10.00;99.90
1083;DHT22;530;51.448;7.238;2024-01-30T08:31:07;10.10;99.90
1083;DHT22;530;51.448;7.238;2024-01-30T08:33:35;10.10;99.90
1083;DHT22;530;51.448;7.238;2024-01-30T08:36:01;10.10;99.90
1083;DHT22;530;51.448;7.238;2024-01-30T08:38:26;10.10;99.90
1083;DHT22;530;51.448;7.238;2024-01-30T08:40:52;10.10;99.90
1083;DHT22;530;51.448;7.238;2024-01-30T08:43:18;10.10;99.90
1083;DHT22;530;51.448;7.238;2024-01-30T08:45:43;10.20;99.90
1083;DHT22;530;51.448;7.238;2024-01-30T08:48:09;10.20;99.90
1083;DHT22;530;51.448;7.238;2024-01-30T08:50:35;10.30;99.90
1083;DHT22;530;51.448;7.238;2024-01-30T08:53:00;10.20;99.90
1083;DHT22;530;51.448;7.238;2024-01-30T08:55:26;10.30;99.90
1083;DHT22;530;51.448;7.238;2024-01-30T08:57:52;10.30;99.90
1083;DHT22;530;51.448;7.238;2024-01-30T09:00:18;10.40;99.90
1083;DHT22;530;51.448;7.238;2024-01-30T09:02:44;10.50;99.90
1083;DHT22;530;51.448;7.238;2024-01-30T09:05:10;10.50;99.90
1083;DHT22;530;51.448;7.238;2024-01-30T09:07:36;10.50;99.90
1083;DHT22;530;51.448;7.238;2024-01-30T09:10:01;10.50;99.90
1083;DHT22;530;51.448;7.238;2024-01-30T09:12:27;10.60;99.90
1083;DHT22;530;51.448;7.238;2024-01-30T09:14:53;10.60;99.90
1083;DHT22;530;51.448;7.238;2024-01-30T09:17:19;10.60;99.90
1083;DHT22;530;51.448;7.238;2024-01-30T09:19:46;10.60;99.90
1083;DHT22;530;51.448;7.238;2024-01-30T09:22:12;10.70;99.90
1083;DHT22;530;51.448;7.238;2024-01-30T09:24:37;10.70;99.90
1083;DHT22;530;51.448;7.238;2024-01-30T09:27:03;10.70;99.90
1083;DHT22;530;51.448;7.238;2024-01-30T09:29:29;10.70;99.90
1083;DHT22;530;51.448;7.238;2024-01-30T09:31:54;10.80;99.90
1083;DHT22;530;51.448;7.238;2024-01-30T09:34:20;10.80;99.90
1083;DHT22;530;51.448;7.238;2024-01-30T09:36:46;10.80;99.90
1083;DHT22;530;51.448;7.238;2024-01-30T09:39:12;10.90;99.90
1083;DHT22;530;51.448;7.238;2024-01-30T09:41:48;10.90;99.90
1083;DHT22;530;51.448;7.238;2024-01-30T09:44:16;10.90;99.90
1083;DHT22;530;51.448;7.238;2024-01-30T09:46:43;11.00;99.90
1083;DHT22;530;51.448;7.238;2024-01-30T09:49:09;11.00;99.90
1083;DHT22;530;51.448;7.238;2024-01-30T09:51:35;11.00;99.90
1083;DHT22;530;51.448;7.238;2024-01-30T09:54:02;11.00;99.90
1083;DHT22;530;51.448;7.238;2024-01-30T09:56:28;11.10;99.90
1083;DHT22;530;51.448;7.238;2024-01-30T09:58:54;11.10;99.90
1083;DHT22;530;51.448;7.238;2024-01-30T10:01:20;11.20;99.90
1083;DHT22;530;51.448;7.238;2024-01-30T10:03:46;11.20;99.90
1083;DHT22;530;51.448;7.238;2024-01-30T10:06:12;11.30;99.90
1083;DHT22;530;51.448;7.238;2024-01-30T10:08:37;11.40;99.90
1083;DHT22;530;51.448;7.238;2024-01-30T10:11:03;11.40;99.90
1083;DHT22;530;51.448;7.238;2024-01-30T10:13:29;11.40;99.90
1083;DHT22;530;51.448;7.238;2024-01-30T10:15:55;11.50;99.90
1083;DHT22;530;51.448;7.238;2024-01-30T10:18:22;11.50;99.90
1083;DHT22;530;51.448;7.238;2024-01-30T10:20:49;11.60;99.90
1083;DHT22;530;51.448;7.238;2024-01-30T10:23:14;11.70;99.90
1083;DHT22;530;51.448;7.238;2024-01-30T10:25:40;12.10;99.90
1083;DHT22;530;51.448;7.238;2024-01-30T10:28:07;12.50;99.90
1083;DHT22;530;51.448;7.238;2024-01-30T10:30:32;13.00;99.90
1083;DHT22;530;51.448;7.238;2024-01-30T10:32:58;13.10;99.90
1083;DHT22;530;51.448;7.238;2024-01-30T10:35:24;13.20;99.90
1083;DHT22;530;51.448;7.238;2024-01-30T10:37:49;13.30;99.90
1083;DHT22;530;51.448;7.238;2024-01-30T10:40:15;13.20;99.90
1083;DHT22;530;51.448;7.238;2024-01-30T10:42:45;13.20;99.90
1083;DHT22;530;51.448;7.238;2024-01-30T10:45:12;13.30;99.90
1083;DHT22;530;51.448;7.238;2024-01-30T10:47:40;13.40;99.90
1083;DHT22;530;51.448;7.238;2024-01-30T10:50:08;13.50;99.90
1083;DHT22;530;51.448;7.238;2024-01-30T10:52:34;13.60;99.90
1083;DHT22;530;51.448;7.238;2024-01-30T10:55:00;13.70;99.90
1083;DHT22;530;51.448;7.238;2024-01-30T10:57:27;13.80;99.90
1083;DHT22;530;51.448;7.238;2024-01-30T11:00:00;14.00;99.90
1083;DHT22;530;51.448;7.238;2024-01-30T11:02:27;14.00;99.90
1083;DHT22;530;51.448;7.238;2024-01-30T11:05:00;13.90;99.90
1083;DHT22;530;51.448;7.238;2024-01-30T11:07:28;13.90;99.90
1083;DHT22;530;51.448;7.238;2024-01-30T11:12:29;14.00;99.90
1083;DHT22;530;51.448;7.238;2024-01-30T11:18:00;13.90;99.90
1083;DHT22;530;51.448;7.238;2024-01-30T11:20:27;13.80;99.90
1083;DHT22;530;51.448;7.238;2024-01-30T11:22:55;13.70;99.90
1083;DHT22;530;51.448;7.238;2024-01-30T11:25:22;13.60;99.90
1083;DHT22;530;51.448;7.238;2024-01-30T11:27:53;13.50;99.90
1083;DHT22;530;51.448;7.238;2024-01-30T11:30:26;13.50;99.90
1083;DHT22;530;51.448;7.238;2024-01-30T11:33:07;13.40;99.90
1083;DHT22;530;51.448;7.238;2024-01-30T11:38:08;13.20;99.90
1083;DHT22;530;51.448;7.238;2024-01-30T11:40:34;13.20;99.90
1083;DHT22;530;51.448;7.238;2024-01-30T11:43:02;13.10;99.90
1083;DHT22;530;51.448;7.238;2024-01-30T11:45:28;13.10;99.90
1083;DHT22;530;51.448;7.238;2024-01-30T11:47:54;13.10;99.90
1083;DHT22;530;51.448;7.238;2024-01-30T11:50:20;13.10;99.90
1083;DHT22;530;51.448;7.238;2024-01-30T11:52:47;13.00;99.90
1083;DHT22;530;51.448;7.238;2024-01-30T11:55:14;13.00;99.90
1083;DHT22;530;51.448;7.238;2024-01-30T11:57:40;13.00;99.90
1083;DHT22;530;51.448;7.238;2024-01-30T12:00:13;13.00;99.90
1083;DHT22;530;51.448;7.238;2024-01-30T12:02:39;12.90;99.90
1083;DHT22;530;51.448;7.238;2024-01-30T12:05:06;12.80;99.90
1083;DHT22;530;51.448;7.238;2024-01-30T12:07:32;12.70;99.90
1083;DHT22;530;51.448;7.238;2024-01-30T12:09:58;12.70;99.90
1083;DHT22;530;51.448;7.238;2024-01-30T12:12:28;12.70;99.90
1083;DHT22;530;51.448;7.238;2024-01-30T12:14:54;12.70;99.90
1083;DHT22;530;51.448;7.238;2024-01-30T12:17:31;12.70;99.90
1083;DHT22;530;51.448;7.238;2024-01-30T12:20:27;12.60;99.90
1083;DHT22;530;51.448;7.238;2024-01-30T12:22:52;12.60;99.90
1083;DHT22;530;51.448;7.238;2024-01-30T12:25:20;12.60;99.90
1083;DHT22;530;51.448;7.238;2024-01-30T12:27:48;12.60;99.90
1083;DHT22;530;51.448;7.238;2024-01-30T12:30:17;12.60;99.90
1083;DHT22;530;51.448;7.238;2024-01-30T12:32:45;12.50;99.90
1083;DHT22;530;51.448;7.238;2024-01-30T12:35:16;12.50;99.90
1083;DHT22;530;51.448;7.238;2024-01-30T12:37:43;12.50;99.90
1083;DHT22;530;51.448;7.238;2024-01-30T12:40:10;12.50;99.90
1083;DHT22;530;51.448;7.238;2024-01-30T12:42:36;12.40;99.90
1083;DHT22;530;51.448;7.238;2024-01-30T12:45:04;12.40;99.90
1083;DHT22;530;51.448;7.238;2024-01-30T12:47:30;12.40;99.90
1083;DHT22;530;51.448;7.238;2024-01-30T12:49:55;12.40;99.90
1083;DHT22;530;51.448;7.238;2024-01-30T12:52:22;12.40;99.90
1083;DHT22;530;51.448;7.238;2024-01-30T12:54:48;12.40;99.90
1083;DHT22;530;51.448;7.238;2024-01-30T12:57:14;12.40;99.90
1083;DHT22;530;51.448;7.238;2024-01-30T12:59:42;12.30;99.90
1083;DHT22;530;51.448;7.238;2024-01-30T13:02:08;12.40;99.90
1083;DHT22;530;51.448;7.238;2024-01-30T13:04:34;12.30;99.90
1083;DHT22;530;51.448;7.238;2024-01-30T13:07:00;12.30;99.90
1083;DHT22;530;51.448;7.238;2024-01-30T13:09:26;12.30;99.90
1083;DHT22;530;51.448;7.238;2024-01-30T13:11:52;12.30;99.90
1083;DHT22;530;51.448;7.238;2024-01-30T13:14:18;12.30;99.90
1083;DHT22;530;51.448;7.238;2024-01-30T13:16:43;12.30;99.90
1083;DHT22;530;51.448;7.238;2024-01-30T13:19:09;12.20;99.90
1083;DHT22;530;51.448;7.238;2024-01-30T13:21:35;12.30;99.90
1083;DHT22;530;51.448;7.238;2024-01-30T13:24:00;12.30;99.90
1083;DHT22;530;51.448;7.238;2024-01-30T13:26:26;12.30;99.90
1083;DHT22;530;51.448;7.238;2024-01-30T13:28:52;12.30;99.90
1083;DHT22;530;51.448;7.238;2024-01-30T13:31:17;12.20;99.90
1083;DHT22;530;51.448;7.238;2024-01-30T13:33:45;12.30;99.90
1083;DHT22;530;51.448;7.238;2024-01-30T13:36:11;12.20;99.90
1083;DHT22;530;51.448;7.238;2024-01-30T13:38:37;12.20;99.90
1083;DHT22;530;51.448;7.238;2024-01-30T13:41:03;12.20;99.90
1083;DHT22;530;51.448;7.238;2024-01-30T13:43:29;12.10;99.90
1083;DHT22;530;51.448;7.238;2024-01-30T13:45:55;12.10;99.90
1083;DHT22;530;51.448;7.238;2024-01-30T13:48:20;12.10;99.90
1083;DHT22;530;51.448;7.238;2024-01-30T13:50:47;12.10;99.90
1083;DHT22;530;51.448;7.238;2024-01-30T13:53:13;12.10;99.90
1083;DHT22;530;51.448;7.238;2024-01-30T13:55:39;12.10;99.90
1083;DHT22;530;51.448;7.238;2024-01-30T13:58:07;12.10;99.90
1083;DHT22;530;51.448;7.238;2024-01-30T14:00:33;12.10;99.90
1083;DHT22;530;51.448;7.238;2024-01-30T14:02:59;12.10;99.90
1083;DHT22;530;51.448;7.238;2024-01-30T14:05:25;12.10;99.90
1083;DHT22;530;51.448;7.238;2024-01-30T14:07:52;12.10;99.90
1083;DHT22;530;51.448;7.238;2024-01-30T14:10:17;12.10;99.90
1083;DHT22;530;51.448;7.238;2024-01-30T14:12:43;12.00;99.90
1083;DHT22;530;51.448;7.238;2024-01-30T14:15:10;12.00;99.90
1083;DHT22;530;51.448;7.238;2024-01-30T14:17:36;12.10;99.90
1083;DHT22;530;51.448;7.238;2024-01-30T14:20:03;12.00;99.90
1083;DHT22;530;51.448;7.238;2024-01-30T14:22:30;12.00;99.90
1083;DHT22;530;51.448;7.238;2024-01-30T14:24:55;12.00;99.90
1083;DHT22;530;51.448;7.238;2024-01-30T14:27:22;12.10;99.90
1083;DHT22;530;51.448;7.238;2024-01-30T14:29:47;12.00;99.90
1083;DHT22;530;51.448;7.238;2024-01-30T14:32:13;12.10;99.90
1083;DHT22;530;51.448;7.238;2024-01-30T14:34:39;12.10;99.90
1083;DHT22;530;51.448;7.238;2024-01-30T14:37:05;12.10;99.90
1083;DHT22;530;51.448;7.238;2024-01-30T14:39:30;12.00;99.90
1083;DHT22;530;51.448;7.238;2024-01-30T14:41:57;12.10;99.90
1083;DHT22;530;51.448;7.238;2024-01-30T14:44:22;12.10;99.90
1083;DHT22;530;51.448;7.238;2024-01-30T14:46:49;12.10;99.90
1083;DHT22;530;51.448;7.238;2024-01-30T14:49:15;12.00;99.90
1083;DHT22;530;51.448;7.238;2024-01-30T14:51:41;12.00;99.90
1083;DHT22;530;51.448;7.238;2024-01-30T14:54:07;12.10;99.90
1083;DHT22;530;51.448;7.238;2024-01-30T14:56:33;12.10;99.90
1083;DHT22;530;51.448;7.238;2024-01-30T14:58:59;12.10;99.90
1083;DHT22;530;51.448;7.238;2024-01-30T15:01:24;12.00;99.90
1083;DHT22;530;51.448;7.238;2024-01-30T15:03:50;12.00;99.90
1083;DHT22;530;51.448;7.238;2024-01-30T15:06:21;12.10;99.90
1083;DHT22;530;51.448;7.238;2024-01-30T15:08:50;12.00;99.90
1083;DHT22;530;51.448;7.238;2024-01-30T15:11:15;12.00;99.90
1083;DHT22;530;51.448;7.238;2024-01-30T15:13:41;12.10;99.90
1083;DHT22;530;51.448;7.238;2024-01-30T15:16:07;12.10;99.90
1083;DHT22;530;51.448;7.238;2024-01-30T15:18:33;12.10;99.90
1083;DHT22;530;51.448;7.238;2024-01-30T15:20:59;12.10;99.90
1083;DHT22;530;51.448;7.238;2024-01-30T15:23:24;12.10;99.90
1083;DHT22;530;51.448;7.238;2024-01-30T15:25:50;12.10;99.90
1083;DHT22;530;51.448;7.238;2024-01-30T15:28:16;12.10;99.90
1083;DHT22;530;51.448;7.238;2024-01-30T15:30:43;12.10;99.90
1083;DHT22;530;51.448;7.238;2024-01-30T15:33:12;12.00;99.90
1083;DHT22;530;51.448;7.238;2024-01-30T15:35:37;12.00;99.90
1083;DHT22;530;51.448;7.238;2024-01-30T15:38:07;12.00;99.90
1083;DHT22;530;51.448;7.238;2024-01-30T15:40:34;12.00;99.90
1083;DHT22;530;51.448;7.238;2024-01-30T15:43:00;11.90;99.90
1083;DHT22;530;51.448;7.238;2024-01-30T15:45:26;11.90;99.90
1083;DHT22;530;51.448;7.238;2024-01-30T15:47:52;11.80;99.90
1083;DHT22;530;51.448;7.238;2024-01-30T15:50:17;11.80;99.90
1083;DHT22;530;51.448;7.238;2024-01-30T15:52:43;11.80;99.90
1083;DHT22;530;51.448;7.238;2024-01-30T15:55:09;11.80;99.90
1083;DHT22;530;51.448;7.238;2024-01-30T15:57:34;11.80;99.90
1083;DHT22;530;51.448;7.238;2024-01-30T16:00:00;11.80;99.90
1083;DHT22;530;51.448;7.238;2024-01-30T16:02:26;11.80;99.90
1083;DHT22;530;51.448;7.238;2024-01-30T16:04:53;11.90;99.90
1083;DHT22;530;51.448;7.238;2024-01-30T16:07:18;11.80;99.90
1083;DHT22;530;51.448;7.238;2024-01-30T16:09:44;11.80;99.90
1083;DHT22;530;51.448;7.238;2024-01-30T16:12:10;11.70;99.90
1083;DHT22;530;51.448;7.238;2024-01-30T16:14:36;11.70;99.90
1083;DHT22;530;51.448;7.238;2024-01-30T16:17:02;11.60;99.90
1083;DHT22;530;51.448;7.238;2024-01-30T16:19:28;11.70;99.90
1083;DHT22;530;51.448;7.238;2024-01-30T16:21:54;11.60;99.90
1083;DHT22;530;51.448;7.238;2024-01-30T16:24:19;11.60;99.90
1083;DHT22;530;51.448;7.238;2024-01-30T16:26:49;11.50;99.90
1083;DHT22;530;51.448;7.238;2024-01-30T16:29:14;11.50;99.90